Time;durP1;ratioP1;P1;durP2;ratioP2;P2;SDS_P1;SDS_P2;PMS_P1;PMS_P2;Temp;Humidity;BMP_temperature;BMP_pressure;BME280_temperature;BME280_humidity;BME280_pressure;Samples;Min_cycle;Max_cycle;Signal;HPM_P1;HPM_P2
2020/12/12 00:00:04;;;;;;;19.27;2.92;;;15.30;50.80;;;;;;5092176;28;20066;-72
2020/12/12 00:02:31;;;;;;;9.13;2.97;;;15.40;50.10;;;;;;5091066;28;20387;-71
2020/12/12 00:04:58;;;;;;;10.13;2.72;;;15.40;49.70;;;;;;5087745;28;20468;-72
2020/12/12 00:07:25;;;;;;;14.05;5.72;;;15.30;50.00;;;;;;5089484;28;20077;-71
2020/12/12 00:09:52;;;;;;;20.33;3.03;;;15.30;50.50;;;;;;5088526;28;20365;-71
2020/12/12 00:12:18;;;;;;;11.55;5.50;;;15.30;50.30;;;;;;5085983;28;20020;-72
2020/12/12 00:14:45;;;;;;;9.95;3.03;;;15.30;50.00;;;;;;5103357;28;20025;-72
2020/12/12 00:17:11;;;;;;;9.85;2.90;;;15.30;50.10;;;;;;5090238;28;20330;-72
2020/12/12 00:19:38;;;;;;;17.90;3.58;;;15.30;50.10;;;;;;5086175;28;20510;-72
2020/12/12 00:22:04;;;;;;;15.50;2.88;;;15.20;50.50;;;;;;5091951;28;20036;-72
2020/12/12 00:24:31;;;;;;;16.45;3.67;;;15.40;49.90;;;;;;5083500;28;20083;-72
2020/12/12 00:26:58;;;;;;;13.43;3.25;;;15.40;49.80;;;;;;5096929;28;20080;-72
2020/12/12 00:29:25;;;;;;;15.48;3.33;;;15.30;49.80;;;;;;5117683;28;20043;-72
2020/12/12 00:31:56;;;;;;;22.45;5.05;;;15.30;50.30;;;;;;5118335;28;20019;-73
2020/12/12 00:34:26;;;;;;;13.10;3.45;;;15.20;50.20;;;;;;5122149;28;20499;-74
2020/12/12 00:36:54;;;;;;;15.40;3.67;;;15.20;50.10;;;;;;5085466;28;20090;-72
2020/12/12 00:39:21;;;;;;;15.68;3.03;;;15.20;50.00;;;;;;5094246;28;20111;-72
2020/12/12 00:41:48;;;;;;;8.68;3.08;;;15.10;50.40;;;;;;5095447;28;20029;-72
2020/12/12 00:44:16;;;;;;;10.80;2.45;;;15.10;50.80;;;;;;5096711;28;20076;-72
2020/12/12 00:46:44;;;;;;;13.00;3.72;;;15.10;50.50;;;;;;5090564;28;20043;-72
2020/12/12 00:49:11;;;;;;;10.32;2.47;;;15.10;51.10;;;;;;5094735;28;20031;-72
2020/12/12 00:51:39;;;;;;;14.00;3.70;;;15.10;51.80;;;;;;5098992;28;20585;-72
2020/12/12 00:54:06;;;;;;;9.77;3.00;;;15.10;51.50;;;;;;5097539;28;20024;-72
2020/12/12 00:56:32;;;;;;;11.05;4.05;;;15.10;51.30;;;;;;5104542;28;20035;-72
2020/12/12 00:58:59;;;;;;;13.80;4.10;;;15.10;51.40;;;;;;5103318;28;20361;-72
2020/12/12 01:01:25;;;;;;;17.58;4.20;;;15.00;51.20;;;;;;5091498;28;20089;-71
2020/12/12 01:03:52;;;;;;;8.57;2.83;;;15.00;51.40;;;;;;5092757;28;20024;-71
2020/12/12 01:06:19;;;;;;;9.65;2.92;;;15.10;51.30;;;;;;5095800;28;20023;-72
2020/12/12 01:08:46;;;;;;;10.38;2.63;;;15.10;51.20;;;;;;5106367;28;20024;-71
2020/12/12 01:11:15;;;;;;;6.63;3.65;;;15.00;51.30;;;;;;5090756;28;20077;-72
2020/12/12 01:13:41;;;;;;;17.05;3.33;;;15.00;51.30;;;;;;5104499;28;20020;-72
2020/12/12 01:16:09;;;;;;;12.35;3.00;;;15.00;51.30;;;;;;5094038;28;20465;-72
2020/12/12 01:18:36;;;;;;;13.38;4.00;;;15.00;51.70;;;;;;5098379;28;20032;-71
2020/12/12 01:21:04;;;;;;;8.63;3.38;;;14.90;51.10;;;;;;5097032;28;20103;-72
2020/12/12 01:23:31;;;;;;;15.52;3.95;;;15.00;51.40;;;;;;5096510;28;20034;-71
2020/12/12 01:25:57;;;;;;;12.27;4.00;;;15.00;50.90;;;;;;5093300;28;20043;-72
2020/12/12 01:28:24;;;;;;;10.27;3.53;;;14.90;51.20;;;;;;5091336;28;20028;-72
2020/12/12 01:30:54;;;;;;;12.30;3.75;;;14.90;51.40;;;;;;5085745;28;20047;-72
2020/12/12 01:33:24;;;;;;;10.52;4.18;;;14.90;51.10;;;;;;5091041;28;20024;-71
2020/12/12 01:35:50;;;;;;;8.27;3.67;;;14.90;51.50;;;;;;5092610;28;20039;-71
2020/12/12 01:38:17;;;;;;;8.95;3.13;;;14.80;51.50;;;;;;5091358;28;20335;-73
2020/12/12 01:40:43;;;;;;;13.07;4.40;;;14.90;50.80;;;;;;5099352;28;20106;-73
2020/12/12 01:43:10;;;;;;;12.98;4.15;;;14.90;50.40;;;;;;5088488;28;20032;-71
2020/12/12 01:45:39;;;;;;;8.07;3.45;;;15.00;50.00;;;;;;5096483;28;20221;-72
2020/12/12 01:48:08;;;;;;;11.02;3.72;;;14.80;50.30;;;;;;5089677;28;20102;-72
2020/12/12 01:50:36;;;;;;;12.18;3.70;;;14.80;50.70;;;;;;5094902;28;20013;-72
2020/12/12 01:53:02;;;;;;;11.57;3.60;;;14.90;50.30;;;;;;5091198;28;20024;-72
2020/12/12 01:55:30;;;;;;;15.48;3.72;;;14.90;49.90;;;;;;5087979;28;20054;-71
2020/12/12 01:57:56;;;;;;;17.05;4.13;;;14.90;49.80;;;;;;5092536;28;20040;-72
2020/12/12 02:00:24;;;;;;;12.15;3.95;;;14.90;49.70;;;;;;5091628;28;20036;-71
2020/12/12 02:02:54;;;;;;;13.68;5.18;;;14.90;49.90;;;;;;5088107;28;20044;-71
2020/12/12 02:05:43;;;;;;;16.42;3.90;;;14.90;49.70;;;;;;5092467;28;20515;-71
2020/12/12 02:08:18;;;;;;;10.20;3.40;;;14.90;49.90;;;;;;5093098;28;20024;-73
2020/12/12 02:10:46;;;;;;;18.40;3.92;;;14.90;49.70;;;;;;5092420;28;20035;-72
2020/12/12 02:13:14;;;;;;;15.27;4.10;;;14.90;49.40;;;;;;5092289;28;20353;-72
2020/12/12 02:15:42;;;;;;;12.40;4.18;;;15.00;49.30;;;;;;5097146;28;20426;-72
2020/12/12 02:18:20;;;;;;;14.30;4.25;;;14.90;49.80;;;;;;5092670;28;20019;-72
2020/12/12 02:20:58;;;;;;;8.27;3.15;;;14.80;50.00;;;;;;5099803;28;20103;-73
2020/12/12 02:23:25;;;;;;;8.57;4.28;;;14.70;50.90;;;;;;5095092;28;20115;-73
2020/12/12 02:25:52;;;;;;;5.40;3.22;;;14.60;51.10;;;;;;5085938;28;20078;-73
2020/12/12 02:28:24;;;;;;;9.32;3.83;;;14.70;51.00;;;;;;5094905;28;20023;-73
2020/12/12 02:30:50;;;;;;;;;;;14.70;51.20;;;;;;5087360;28;20027;-74
2020/12/12 02:33:17;;;;;;;12.05;3.30;;;14.70;50.80;;;;;;5095932;28;19947;-72
2020/12/12 02:35:44;;;;;;;10.20;3.25;;;14.70;51.50;;;;;;5078284;28;20082;-73
2020/12/12 02:38:10;;;;;;;5.93;2.65;;;14.80;51.30;;;;;;5093939;28;21733;-72
2020/12/12 02:40:36;;;;;;;14.27;4.88;;;14.70;51.60;;;;;;5092153;28;20081;-73
2020/12/12 02:43:03;;;;;;;13.43;5.03;;;14.70;51.30;;;;;;5091460;28;20163;-72
2020/12/12 02:45:29;;;;;;;10.40;4.57;;;14.80;51.30;;;;;;5101839;28;20024;-75
2020/12/12 02:47:56;;;;;;;9.05;3.92;;;14.80;51.30;;;;;;5096936;28;20032;-74
2020/12/12 02:50:26;;;;;;;13.23;4.88;;;14.70;51.80;;;;;;5083922;28;20109;-73
2020/12/12 02:52:53;;;;;;;13.93;4.68;;;14.70;52.10;;;;;;5087348;28;20024;-73
2020/12/12 02:55:21;;;;;;;10.35;4.53;;;14.70;51.70;;;;;;5084167;28;20028;-73
2020/12/12 02:57:48;;;;;;;11.68;4.05;;;14.70;52.50;;;;;;5090297;28;20396;-72
2020/12/12 03:00:16;;;;;;;17.75;4.32;;;14.80;52.00;;;;;;5085732;28;20480;-72
2020/12/12 03:02:43;;;;;;;7.38;3.35;;;14.70;51.90;;;;;;5084897;28;20038;-72
2020/12/12 03:05:10;;;;;;;12.63;3.92;;;14.70;52.20;;;;;;5095651;28;20096;-73
2020/12/12 03:07:36;;;;;;;11.30;3.10;;;14.80;51.80;;;;;;5092175;28;20043;-73
2020/12/12 03:10:07;;;;;;;9.75;3.03;;;14.90;51.80;;;;;;5093320;28;20060;-73
2020/12/12 03:12:37;;;;;;;11.88;3.05;;;14.80;53.70;;;;;;5093028;28;20016;-74
2020/12/12 03:15:10;;;;;;;11.73;2.63;;;14.90;56.10;;;;;;5085276;28;20034;-72
2020/12/12 03:17:36;;;;;;;;;;;14.90;56.40;;;;;;5115623;28;20054;-70
2020/12/12 03:20:05;;;;;;;6.15;1.92;;;14.80;56.20;;;;;;5080521;28;20397;-73
2020/12/12 03:22:31;;;;;;;14.48;4.18;;;14.80;58.20;;;;;;5081894;28;20029;-73
2020/12/12 03:24:58;;;;;;;10.57;3.78;;;14.70;58.30;;;;;;5082795;28;20024;-72
2020/12/12 03:27:24;;;;;;;20.00;4.28;;;14.60;57.50;;;;;;5084920;28;20025;-72
2020/12/12 03:29:51;;;;;;;14.27;4.78;;;14.50;58.40;;;;;;5089250;28;20401;-71
2020/12/12 03:32:17;;;;;;;13.32;5.45;;;14.40;58.80;;;;;;5093010;28;20347;-71
2020/12/12 03:34:44;;;;;;;12.93;4.78;;;14.50;57.20;;;;;;5092620;28;20020;-72
2020/12/12 03:37:12;;;;;;;16.42;5.13;;;14.50;57.70;;;;;;5091331;28;20111;-71
2020/12/12 03:39:39;;;;;;;14.60;4.50;;;14.40;58.10;;;;;;5091775;28;20016;-70
2020/12/12 03:42:06;;;;;;;12.15;4.57;;;14.40;57.60;;;;;;5092766;28;20024;-70
2020/12/12 03:44:34;;;;;;;17.58;4.57;;;14.40;57.60;;;;;;5093820;28;20347;-71
2020/12/12 03:47:01;;;;;;;14.68;5.75;;;14.40;56.90;;;;;;5094468;28;20024;-70
2020/12/12 03:49:27;;;;;;;13.52;5.00;;;14.20;60.50;;;;;;5095143;28;20028;-70
2020/12/12 03:51:53;;;;;;;13.93;6.15;;;14.20;58.80;;;;;;5090677;28;20009;-70
2020/12/12 03:54:20;;;;;;;16.15;8.30;;;14.30;58.70;;;;;;5088836;28;20422;-72
2020/12/12 03:56:46;;;;;;;22.10;7.32;;;14.30;56.70;;;;;;5086261;28;20082;-70
2020/12/12 03:59:12;;;;;;;20.45;10.45;;;14.20;60.00;;;;;;5098535;28;20123;-71
2020/12/12 04:01:39;;;;;;;14.15;5.22;;;13.90;63.10;;;;;;5098616;28;20137;-71
2020/12/12 04:04:05;;;;;;;19.17;7.72;;;13.80;63.30;;;;;;5104710;28;20364;-71
2020/12/12 04:06:34;;;;;;;30.95;10.68;;;13.80;60.10;;;;;;5100037;28;20100;-71
2020/12/12 04:09:00;;;;;;;27.27;10.23;;;13.90;60.50;;;;;;5089908;28;20432;-71
2020/12/12 04:11:27;;;;;;;66.25;49.40;;;13.90;59.90;;;;;;5088766;28;20086;-71
2020/12/12 04:13:53;;;;;;;36.03;22.52;;;13.80;58.20;;;;;;5099313;28;20302;-71
2020/12/12 04:16:20;;;;;;;31.20;20.13;;;13.80;60.70;;;;;;5091258;28;20036;-71
2020/12/12 04:18:46;;;;;;;18.58;9.88;;;13.50;64.30;;;;;;5117271;28;20107;-71
2020/12/12 04:21:13;;;;;;;16.48;8.43;;;13.30;66.70;;;;;;5108617;28;20102;-71
2020/12/12 04:23:43;;;;;;;22.80;9.88;;;13.20;66.50;;;;;;5094951;28;20407;-71
2020/12/12 04:26:11;;;;;;;20.50;7.95;;;13.50;63.10;;;;;;5094497;28;20028;-71
2020/12/12 04:28:39;;;;;;;16.55;5.68;;;13.40;64.40;;;;;;5084071;28;20028;-71
2020/12/12 04:31:06;;;;;;;17.63;7.18;;;13.20;68.00;;;;;;5091939;28;20097;-72
2020/12/12 04:33:34;;;;;;;13.95;6.53;;;13.20;65.60;;;;;;5089137;28;20050;-72
2020/12/12 04:36:00;;;;;;;21.45;8.65;;;13.20;62.70;;;;;;5095190;28;20016;-71
2020/12/12 04:38:30;;;;;;;20.23;7.68;;;13.30;64.50;;;;;;5098520;28;20062;-72
2020/12/12 04:40:58;;;;;;;16.70;6.85;;;13.30;64.30;;;;;;5091331;28;20081;-71
2020/12/12 04:43:29;;;;;;;12.35;6.07;;;13.20;68.20;;;;;;5097849;28;20118;-71
2020/12/12 04:45:57;;;;;;;18.85;7.47;;;13.20;68.30;;;;;;5097561;28;20019;-72
2020/12/12 04:48:25;;;;;;;21.35;8.60;;;13.40;65.70;;;;;;5098038;28;20526;-71
2020/12/12 04:50:53;;;;;;;16.63;7.38;;;13.40;66.10;;;;;;5092616;28;20067;-72
2020/12/12 04:53:24;;;;;;;15.52;8.15;;;13.30;70.20;;;;;;5096900;28;20072;-72
2020/12/12 04:55:52;;;;;;;12.35;6.13;;;13.40;69.80;;;;;;5097343;28;20020;-71
2020/12/12 04:58:24;;;;;;;21.15;7.15;;;13.40;68.20;;;;;;5100911;28;20042;-75
2020/12/12 05:00:53;;;;;;;29.23;9.70;;;13.50;68.10;;;;;;5102177;28;20389;-72
2020/12/12 05:03:21;;;;;;;16.52;7.55;;;13.70;67.40;;;;;;5092567;28;20028;-71
2020/12/12 05:05:49;;;;;;;15.20;5.80;;;13.60;70.80;;;;;;5088239;28;20131;-71
2020/12/12 05:08:15;;;;;;;14.50;5.88;;;13.50;70.10;;;;;;5097724;28;20454;-71
2020/12/12 05:10:44;;;;;;;1.70;1.50;;;13.60;67.30;;;;;;5091087;28;20093;-73
2020/12/12 05:13:22;;;;;;;8.25;3.28;;;13.80;72.00;;;;;;5091671;28;20020;-71
2020/12/12 05:15:50;;;;;;;9.82;4.75;;;13.80;71.20;;;;;;5093842;28;20029;-71
2020/12/12 05:18:17;;;;;;;33.47;9.57;;;13.90;70.50;;;;;;5094129;28;20031;-71
2020/12/12 05:20:44;;;;;;;13.43;5.18;;;13.90;68.50;;;;;;5095873;28;20062;-71
2020/12/12 05:23:20;;;;;;;18.08;6.50;;;13.80;72.30;;;;;;5093657;28;20036;-71
2020/12/12 05:25:48;;;;;;;11.82;6.05;;;13.70;72.90;;;;;;5083957;28;20039;-71
2020/12/12 05:28:16;;;;;;;14.93;5.28;;;13.60;74.40;;;;;;5091501;28;20027;-73
2020/12/12 05:30:45;;;;;;;17.42;6.38;;;13.70;72.80;;;;;;5094977;28;20031;-72
2020/12/12 05:33:17;;;;;;;13.68;6.00;;;13.80;69.10;;;;;;5097464;28;20409;-72
2020/12/12 05:35:44;;;;;;;12.98;5.15;;;13.70;71.50;;;;;;5088865;28;20036;-72
2020/12/12 05:38:11;;;;;;;11.73;6.05;;;13.70;72.60;;;;;;5087859;28;20062;-72
2020/12/12 05:40:50;;;;;;;10.25;4.47;;;13.60;72.90;;;;;;5094732;28;20108;-71
2020/12/12 05:43:16;;;;;;;9.07;5.20;;;13.60;72.00;;;;;;5094362;28;20024;-71
2020/12/12 05:45:43;;;;;;;13.70;5.13;;;13.60;70.20;;;;;;5093038;28;20119;-71
2020/12/12 05:48:11;;;;;;;11.48;5.60;;;13.70;68.30;;;;;;5093810;28;20318;-71
2020/12/12 05:50:38;;;;;;;11.05;5.07;;;13.70;69.00;;;;;;5092022;28;20028;-72
2020/12/12 05:53:06;;;;;;;9.35;3.45;;;13.60;72.30;;;;;;5091748;28;20030;-71
2020/12/12 05:55:34;;;;;;;10.75;4.22;;;13.70;70.40;;;;;;5095937;28;20035;-71
2020/12/12 05:58:01;;;;;;;11.52;4.63;;;13.70;74.00;;;;;;5093867;28;20028;-72
2020/12/12 06:00:31;;;;;;;12.60;4.40;;;13.70;73.40;;;;;;5094736;28;20031;-71
2020/12/12 06:03:03;;;;;;;5.97;2.40;;;13.80;72.70;;;;;;5082922;28;20021;-71
2020/12/12 06:05:32;;;;;;;3.55;1.98;;;13.80;74.40;;;;;;5089839;28;20024;-73
2020/12/12 06:08:04;;;;;;;4.50;2.20;;;14.00;72.00;;;;;;5093358;28;20035;-71
2020/12/12 06:10:31;;;;;;;;;;;14.00;72.70;;;;;;5093467;28;20115;-71
2020/12/12 06:13:06;;;;;;;8.00;3.67;;;14.00;70.30;;;;;;5093273;28;20447;-71
2020/12/12 06:15:38;;;;;;;8.32;3.25;;;14.10;72.10;;;;;;5093756;28;20456;-71
2020/12/12 06:18:30;;;;;;;8.85;2.90;;;14.30;70.40;;;;;;5088875;28;20461;-71
2020/12/12 06:21:03;;;;;;;3.45;0.90;;;14.30;70.10;;;;;;5089851;28;20051;-72
2020/12/12 06:23:32;;;;;;;1.05;0.80;;;14.60;72.30;;;;;;5088587;28;20028;-72
2020/12/12 06:25:59;;;;;;;0.70;0.70;;;14.90;73.90;;;;;;5095466;28;20084;-73
2020/12/12 06:28:27;;;;;;;1.15;0.80;;;15.10;72.70;;;;;;5103008;27;20441;-73
2020/12/12 06:30:56;;;;;;;0.70;0.70;;;15.30;71.60;;;;;;5092455;28;20024;-72
2020/12/12 06:33:23;;;;;;;1.38;1.02;;;15.20;72.10;;;;;;5095929;28;20140;-72
2020/12/12 06:35:50;;;;;;;0.60;0.50;;;15.30;73.50;;;;;;5101413;28;20437;-72
2020/12/12 06:38:22;;;;;;;0.57;0.57;;;15.40;72.90;;;;;;5098583;28;20024;-72
2020/12/12 06:40:50;;;;;;;0.60;0.60;;;15.40;72.20;;;;;;5092245;28;20469;-72
2020/12/12 06:43:30;;;;;;;1.45;1.35;;;15.60;70.90;;;;;;5087224;28;20028;-72
2020/12/12 06:45:58;;;;;;;0.60;0.60;;;15.70;71.70;;;;;;5094769;28;20110;-72
2020/12/12 06:48:28;;;;;;;0.63;0.63;;;15.70;71.20;;;;;;5092234;28;20353;-72
2020/12/12 06:50:56;;;;;;;1.00;0.60;;;15.90;71.20;;;;;;5095549;28;20038;-72
2020/12/12 06:53:24;;;;;;;1.98;0.93;;;16.10;71.10;;;;;;5094192;28;20077;-73
2020/12/12 06:56:13;;;;;;;0.75;0.70;;;16.00;71.80;;;;;;5084773;28;20495;-73
2020/12/12 06:58:40;;;;;;;2.17;0.68;;;15.70;72.90;;;;;;5085940;28;20036;-73
2020/12/12 07:01:32;;;;;;;0.63;0.50;;;15.60;74.10;;;;;;5088407;28;20024;-73
2020/12/12 07:04:06;;;;;;;1.58;0.70;;;15.80;71.40;;;;;;5084739;28;20032;-73
2020/12/12 07:06:34;;;;;;;0.80;0.80;;;16.10;72.40;;;;;;5099568;28;20465;-74
2020/12/12 07:09:08;;;;;;;1.80;0.90;;;16.10;71.70;;;;;;5093468;28;20020;-74
2020/12/12 07:11:36;;;;;;;0.82;0.63;;;16.10;71.20;;;;;;5096017;28;20058;-72
2020/12/12 07:14:03;;;;;;;1.70;0.80;;;16.10;71.10;;;;;;5089926;28;20016;-73
2020/12/12 07:16:30;;;;;;;0.80;0.70;;;16.20;71.50;;;;;;5088962;28;20024;-74
2020/12/12 07:18:56;;;;;;;1.70;0.75;;;16.30;71.60;;;;;;5092088;28;20028;-73
2020/12/12 07:21:23;;;;;;;1.05;0.95;;;16.30;71.20;;;;;;5086087;28;20025;-73
2020/12/12 07:23:50;;;;;;;0.70;0.70;;;16.10;71.80;;;;;;5090187;28;20036;-73
2020/12/12 07:26:16;;;;;;;2.20;0.70;;;16.10;72.70;;;;;;5090260;28;20038;-73
2020/12/12 07:28:43;;;;;;;3.60;0.88;;;16.10;71.90;;;;;;5092963;28;20067;-73
2020/12/12 07:31:10;;;;;;;0.60;0.60;;;16.10;72.10;;;;;;5093349;28;20031;-73
2020/12/12 07:33:36;;;;;;;0.60;0.60;;;16.30;72.80;;;;;;5092330;28;20031;-73
2020/12/12 07:36:03;;;;;;;0.60;0.60;;;16.20;71.70;;;;;;5092122;28;20089;-72
2020/12/12 07:38:30;;;;;;;0.50;0.50;;;16.20;70.90;;;;;;5090879;28;20157;-73
2020/12/12 07:40:56;;;;;;;1.75;0.70;;;16.20;71.90;;;;;;5095466;28;20028;-72
2020/12/12 07:43:23;;;;;;;1.60;0.77;;;16.30;72.30;;;;;;5092000;28;20024;-72
2020/12/12 07:48:19;;;;;;;0.50;0.50;;;16.30;71.40;;;;;;5094737;28;20450;-73
2020/12/12 07:50:45;;;;;;;0.60;0.60;;;16.40;71.70;;;;;;5092107;28;20032;-73
2020/12/12 07:53:14;;;;;;;0.70;0.70;;;16.40;71.70;;;;;;5100183;28;20032;-73
2020/12/12 07:55:45;;;;;;;2.50;0.70;;;16.40;72.30;;;;;;5092852;28;20036;-74
2020/12/12 07:58:19;;;;;;;0.70;0.70;;;16.40;71.70;;;;;;5090157;28;20063;-72
2020/12/12 08:00:45;;;;;;;0.60;0.60;;;16.50;72.30;;;;;;5091122;28;20035;-73
2020/12/12 08:03:12;;;;;;;2.05;0.70;;;16.50;72.00;;;;;;5093708;28;20478;-73
2020/12/12 08:05:38;;;;;;;0.90;0.68;;;16.50;71.70;;;;;;5090777;28;20342;-72
2020/12/12 08:08:11;;;;;;;0.70;0.70;;;16.40;71.70;;;;;;5093561;28;20041;-73
2020/12/12 08:10:37;;;;;;;0.77;0.70;;;16.40;72.20;;;;;;5087492;28;20048;-72
2020/12/12 08:13:05;;;;;;;0.80;0.80;;;16.50;72.30;;;;;;5094153;28;20028;-73
2020/12/12 08:15:39;;;;;;;1.35;1.35;;;16.60;72.40;;;;;;5092122;28;20032;-73
2020/12/12 08:18:13;;;;;;;1.00;0.70;;;16.60;72.60;;;;;;5093945;28;20024;-72
2020/12/12 08:20:39;;;;;;;0.95;0.95;;;16.60;72.40;;;;;;5094941;28;20020;-73
2020/12/12 08:23:11;;;;;;;0.60;0.60;;;16.60;73.00;;;;;;5101663;28;20060;-73
2020/12/12 08:25:37;;;;;;;0.70;0.70;;;16.60;73.10;;;;;;5094664;28;20024;-73
2020/12/12 08:28:08;;;;;;;0.60;0.60;;;16.50;72.30;;;;;;5091394;28;20024;-73
2020/12/12 08:30:34;;;;;;;0.68;0.68;;;16.50;73.30;;;;;;5094666;28;20457;-73
2020/12/12 08:33:21;;;;;;;1.70;0.60;;;16.50;73.10;;;;;;5094195;28;20077;-72
2020/12/12 08:35:47;;;;;;;0.75;0.50;;;16.60;72.80;;;;;;5092104;28;20055;-74
2020/12/12 08:38:14;;;;;;;0.60;0.60;;;16.50;72.50;;;;;;5100081;28;20038;-73
2020/12/12 08:40:48;;;;;;;0.63;0.63;;;16.60;73.60;;;;;;5094671;28;20035;-74
2020/12/12 08:43:17;;;;;;;1.23;0.70;;;16.60;73.10;;;;;;5085205;28;20036;-73
2020/12/12 08:45:59;;;;;;;0.60;0.60;;;16.60;73.30;;;;;;5088774;28;20524;-72
2020/12/12 08:48:37;;;;;;;2.17;0.80;;;16.70;73.00;;;;;;5093353;28;20086;-73
2020/12/12 08:51:08;;;;;;;1.20;0.77;;;16.70;73.90;;;;;;5096180;28;20372;-73
2020/12/12 08:53:39;;;;;;;0.60;0.60;;;16.60;73.20;;;;;;5119044;28;20044;-72
2020/12/12 08:56:24;;;;;;;1.30;0.88;;;16.60;73.60;;;;;;5115657;27;20399;-73
2020/12/12 08:58:55;;;;;;;1.77;0.65;;;16.70;73.40;;;;;;5090866;28;20054;-72
2020/12/12 09:01:32;;;;;;;1.52;0.80;;;16.70;73.60;;;;;;5096532;28;20465;-72
2020/12/12 09:04:08;;;;;;;0.60;0.60;;;16.60;73.30;;;;;;5091802;28;20032;-74
2020/12/12 09:06:51;;;;;;;2.35;0.80;;;16.60;74.00;;;;;;5098589;28;20042;-74
2020/12/12 09:09:35;;;;;;;0.77;0.70;;;16.70;74.00;;;;;;5098088;28;20016;-73
2020/12/12 09:12:08;;;;;;;1.55;0.65;;;16.60;73.50;;;;;;5097102;28;20016;-73
2020/12/12 09:14:41;;;;;;;1.42;0.65;;;16.60;74.10;;;;;;5098731;28;20016;-73
2020/12/12 09:17:10;;;;;;;0.73;0.60;;;16.60;73.30;;;;;;5098938;28;20043;-73
2020/12/12 09:19:38;;;;;;;1.13;0.82;;;16.50;73.50;;;;;;5098362;28;20099;-74
2020/12/12 09:22:09;;;;;;;0.93;0.80;;;16.50;73.80;;;;;;5099153;28;20350;-75
2020/12/12 09:24:35;;;;;;;0.85;0.85;;;16.60;74.20;;;;;;5098895;28;20099;-74
2020/12/12 09:27:02;;;;;;;0.70;0.70;;;16.60;73.90;;;;;;5097649;28;20028;-73
2020/12/12 09:29:29;;;;;;;0.88;0.85;;;16.50;73.50;;;;;;5098611;28;20350;-73
2020/12/12 09:31:56;;;;;;;0.57;0.57;;;16.60;74.00;;;;;;5112530;28;20019;-73
2020/12/12 09:34:24;;;;;;;0.85;0.60;;;16.60;73.20;;;;;;5101373;28;20020;-73
2020/12/12 09:36:51;;;;;;;0.75;0.60;;;16.50;73.70;;;;;;5098530;28;20403;-73
2020/12/12 09:39:18;;;;;;;0.40;0.40;;;16.50;74.00;;;;;;5094346;28;20024;-74
2020/12/12 09:41:45;;;;;;;0.95;0.65;;;16.60;74.60;;;;;;5098075;28;20024;-74
2020/12/12 09:44:11;;;;;;;0.57;0.57;;;16.60;73.60;;;;;;5098021;28;20193;-73
2020/12/12 09:46:38;;;;;;;0.68;0.68;;;16.60;74.40;;;;;;5098113;28;20043;-74
2020/12/12 09:49:04;;;;;;;4.82;0.60;;;16.60;75.20;;;;;;5097624;28;20361;-73
2020/12/12 09:51:30;;;;;;;1.13;0.60;;;16.60;74.40;;;;;;5097918;28;20460;-73
2020/12/12 09:53:58;;;;;;;0.55;0.55;;;16.60;73.70;;;;;;5097773;28;20020;-73
2020/12/12 09:56:25;;;;;;;2.58;0.70;;;16.60;74.60;;;;;;5097391;28;20048;-72
2020/12/12 09:58:51;;;;;;;2.05;0.60;;;16.70;74.90;;;;;;5097273;28;20032;-73
2020/12/12 10:01:17;;;;;;;1.08;0.60;;;16.70;74.20;;;;;;5097278;28;20357;-73
2020/12/12 10:03:44;;;;;;;0.80;0.65;;;16.80;74.00;;;;;;5096532;28;20024;-72
2020/12/12 10:06:11;;;;;;;0.93;0.60;;;16.80;74.10;;;;;;5097721;28;20110;-73
2020/12/12 10:08:38;;;;;;;0.93;0.60;;;16.90;74.30;;;;;;5097118;28;20017;-73
2020/12/12 10:11:05;;;;;;;3.58;0.77;;;16.90;73.90;;;;;;5096951;28;20017;-73
2020/12/12 10:13:32;;;;;;;2.05;0.70;;;16.90;73.40;;;;;;5097396;28;20024;-73
2020/12/12 10:15:59;;;;;;;4.22;1.10;;;16.80;73.70;;;;;;5097069;28;20035;-73
2020/12/12 10:18:25;;;;;;;3.17;1.45;;;17.00;75.40;;;;;;5097266;28;20399;-73
2020/12/12 10:20:52;;;;;;;5.35;1.27;;;17.00;75.80;;;;;;5097265;28;20039;-73
2020/12/12 10:23:18;;;;;;;3.08;1.77;;;17.00;75.00;;;;;;5096794;28;20024;-73
2020/12/12 10:25:44;;;;;;;6.78;1.40;;;17.00;75.30;;;;;;5097039;28;20032;-73
2020/12/12 10:28:11;;;;;;;6.25;1.27;;;17.00;76.70;;;;;;5096903;28;20056;-75
2020/12/12 10:30:38;;;;;;;11.65;2.45;;;16.90;76.30;;;;;;5096894;28;20111;-74
2020/12/12 10:33:04;;;;;;;8.00;1.88;;;17.00;75.40;;;;;;5096798;28;20020;-74
2020/12/12 10:35:31;;;;;;;10.98;1.48;;;17.10;75.50;;;;;;5097080;28;20028;-73
2020/12/12 10:37:59;;;;;;;7.10;1.92;;;17.20;76.40;;;;;;5096837;28;20020;-73
2020/12/12 10:40:49;;;;;;;12.60;2.72;;;17.20;74.50;;;;;;5096390;28;20028;-73
2020/12/12 10:43:15;;;;;;;11.52;2.78;;;17.30;74.90;;;;;;5092078;28;20369;-71
2020/12/12 10:45:42;;;;;;;5.85;1.55;;;17.30;74.20;;;;;;5084536;28;20038;-73
2020/12/12 10:48:09;;;;;;;8.60;1.85;;;17.20;75.70;;;;;;5095505;28;20041;-72
2020/12/12 10:50:35;;;;;;;7.28;2.15;;;17.20;75.20;;;;;;5086757;28;20450;-73
2020/12/12 10:53:02;;;;;;;9.00;1.90;;;17.20;75.10;;;;;;5098161;28;20033;-72
2020/12/12 10:55:28;;;;;;;10.80;2.58;;;17.20;74.80;;;;;;5096587;28;20449;-73
2020/12/12 10:57:55;;;;;;;8.55;1.30;;;17.40;74.10;;;;;;5116048;28;20027;-73
2020/12/12 11:00:26;;;;;;;8.15;1.58;;;17.30;75.40;;;;;;5097282;28;20028;-74
2020/12/12 11:02:53;;;;;;;5.25;1.55;;;17.40;75.30;;;;;;5095298;28;20353;-73
2020/12/12 11:05:21;;;;;;;9.05;1.98;;;17.60;75.00;;;;;;5096301;28;20039;-72
2020/12/12 11:07:47;;;;;;;8.07;2.05;;;17.40;75.30;;;;;;5095576;28;20020;-73
2020/12/12 11:10:14;;;;;;;6.47;1.65;;;17.50;74.70;;;;;;5091692;28;20047;-72
2020/12/12 11:12:40;;;;;;;7.90;1.80;;;17.60;74.60;;;;;;5096047;28;20051;-72
2020/12/12 11:15:08;;;;;;;2.70;1.30;;;17.50;75.00;;;;;;5094543;28;20039;-73
2020/12/12 11:17:34;;;;;;;3.83;1.65;;;17.60;74.70;;;;;;5094362;28;20027;-73
2020/12/12 11:20:01;;;;;;;1.90;0.98;;;17.70;74.50;;;;;;5095979;28;20385;-73
2020/12/12 11:22:27;;;;;;;5.55;1.73;;;17.50;74.60;;;;;;5096365;28;20031;-73
2020/12/12 11:24:53;;;;;;;6.57;2.15;;;17.50;73.70;;;;;;5094944;28;20020;-73
2020/12/12 11:27:20;;;;;;;4.00;1.70;;;17.60;73.50;;;;;;5088171;28;20469;-73
2020/12/12 11:29:46;;;;;;;2.35;1.50;;;17.70;73.40;;;;;;5095316;28;20118;-72
2020/12/12 11:32:12;;;;;;;2.60;1.02;;;17.60;72.80;;;;;;5096197;28;20031;-72
2020/12/12 11:34:44;;;;;;;2.58;0.70;;;17.90;72.10;;;;;;5095753;28;20024;-73
2020/12/12 11:37:23;;;;;;;4.30;2.17;;;17.60;73.20;;;;;;5096878;28;20020;-72
2020/12/12 11:40:04;;;;;;;1.95;0.77;;;17.50;73.30;;;;;;5092419;28;20051;-72
2020/12/12 11:48:00;;;;;;;0.75;0.52;;;17.40;73.60;;;;;;5095603;28;20047;-72
2020/12/12 11:50:29;;;;;;;0.50;0.50;;;17.30;74.00;;;;;;5094663;28;20024;-73
2020/12/12 11:52:58;;;;;;;1.45;0.60;;;17.40;74.00;;;;;;5094886;28;20031;-72
2020/12/12 11:55:26;;;;;;;0.88;0.70;;;17.40;74.30;;;;;;5095680;28;20035;-72
2020/12/12 11:57:52;;;;;;;2.25;0.95;;;17.20;75.20;;;;;;5094121;28;20028;-72
2020/12/12 12:00:20;;;;;;;1.63;0.80;;;17.20;74.70;;;;;;5095245;28;20453;-72
2020/12/12 12:02:47;;;;;;;0.88;0.50;;;17.30;75.70;;;;;;5096772;28;20145;-72
2020/12/12 12:05:13;;;;;;;2.88;0.80;;;17.40;75.20;;;;;;5098667;28;20039;-72
2020/12/12 12:07:44;;;;;;;0.90;0.70;;;17.30;75.30;;;;;;5095259;28;20365;-72
2020/12/12 12:12:46;;;;;;;2.10;0.73;;;17.40;74.60;;;;;;5095196;28;20027;-72
2020/12/12 12:15:12;;;;;;;2.80;0.80;;;17.30;75.70;;;;;;5096292;28;20356;-72
2020/12/12 12:17:39;;;;;;;5.75;1.42;;;17.60;75.90;;;;;;5095215;28;20013;-71
2020/12/12 12:20:06;;;;;;;6.68;1.85;;;17.50;76.00;;;;;;5097261;28;20395;-72
2020/12/12 12:22:34;;;;;;;7.35;1.58;;;17.70;75.40;;;;;;5098262;28;20027;-72
2020/12/12 12:25:00;;;;;;;13.45;2.13;;;17.70;75.50;;;;;;5098592;28;20024;-72
2020/12/12 12:27:26;;;;;;;9.82;2.05;;;17.70;76.50;;;;;;5099363;28;20043;-72
2020/12/12 12:29:53;;;;;;;8.57;2.33;;;18.00;75.50;;;;;;5099126;28;20020;-72
2020/12/12 12:32:19;;;;;;;13.73;3.15;;;18.10;75.10;;;;;;5099345;28;20044;-72
2020/12/12 12:34:45;;;;;;;10.07;3.03;;;18.10;75.20;;;;;;5099437;28;20020;-72
2020/12/12 12:37:12;;;;;;;7.68;1.67;;;17.90;75.40;;;;;;5098509;28;20028;-72
2020/12/12 12:39:38;;;;;;;5.38;1.85;;;18.10;74.80;;;;;;5099168;28;20028;-73
2020/12/12 12:42:05;;;;;;;8.23;2.60;;;18.20;74.50;;;;;;5099598;28;20061;-74
2020/12/12 12:44:32;;;;;;;8.27;2.35;;;18.20;74.10;;;;;;5091036;28;20028;-71
2020/12/12 12:46:59;;;;;;;5.22;1.80;;;18.20;74.40;;;;;;5097423;28;20031;-72
2020/12/12 12:49:25;;;;;;;10.75;2.03;;;18.10;74.40;;;;;;5098075;28;20024;-75
2020/12/12 12:51:52;;;;;;;9.48;2.50;;;18.00;75.20;;;;;;5098905;28;20020;-72
2020/12/12 12:54:19;;;;;;;8.75;2.13;;;18.10;74.00;;;;;;5098794;28;20020;-72
2020/12/12 12:56:45;;;;;;;14.30;2.53;;;18.00;74.60;;;;;;5098499;28;20060;-72
2020/12/12 12:59:12;;;;;;;10.18;2.92;;;18.00;75.20;;;;;;5098321;28;20032;-73